createdAt,value
2017-05-10T00:00:29.551Z,0
2017-05-10T00:01:29.257Z,0
2017-05-10T00:02:29.517Z,0
2017-05-10T00:03:29.496Z,0
2017-05-10T00:04:29.471Z,0
2017-05-10T00:05:29.155Z,0
2017-05-10T00:06:29.404Z,0
2017-05-10T00:07:29.382Z,0
2017-05-10T00:08:29.359Z,0
2017-05-10T00:09:29.393Z,0
2017-05-10T00:10:29.309Z,0
2017-05-10T00:11:28.704Z,0
2017-05-10T00:12:29.269Z,0
2017-05-10T00:13:29.256Z,0
2017-05-10T00:14:29.213Z,0
2017-05-10T00:15:29.251Z,0
2017-05-10T00:16:29.196Z,0
2017-05-10T00:17:29.143Z,0
2017-05-10T00:18:28.854Z,0
2017-05-10T00:19:29.096Z,0
2017-05-10T00:20:29.063Z,0
2017-05-10T00:21:29.092Z,0
2017-05-10T00:22:28.725Z,0
2017-05-10T00:23:29.005Z,0
2017-05-10T00:24:28.969Z,0
2017-05-10T00:25:28.956Z,0
2017-05-10T00:26:28.977Z,0
2017-05-10T00:27:28.905Z,0
2017-05-10T00:28:28.910Z,0
2017-05-10T00:29:28.559Z,0
2017-05-10T00:30:28.844Z,0
2017-05-10T00:31:28.802Z,0
2017-05-10T00:32:28.778Z,0
2017-05-10T00:33:28.513Z,0
2017-05-10T00:34:28.730Z,0
2017-05-10T00:35:28.765Z,0
2017-05-10T00:36:28.383Z,0
2017-05-10T00:37:28.687Z,0
2017-05-10T00:38:28.635Z,0
2017-05-10T00:39:28.049Z,0
2017-05-10T00:40:28.597Z,0
2017-05-10T00:41:28.574Z,0
2017-05-10T00:42:28.538Z,0
2017-05-10T00:43:28.516Z,0
2017-05-10T00:44:28.483Z,0
2017-05-10T00:45:28.462Z,0
2017-05-10T00:46:28.146Z,0
2017-05-10T00:47:28.419Z,0
2017-05-10T00:48:28.441Z,0
2017-05-10T00:49:28.378Z,0
2017-05-10T00:50:28.353Z,0
2017-05-10T00:51:28.314Z,0
2017-05-10T00:52:28.548Z,0
2017-05-10T00:53:28.273Z,0
2017-05-10T00:54:28.243Z,0
2017-05-10T00:55:27.924Z,0
2017-05-10T00:56:28.196Z,0
2017-05-10T00:57:27.874Z,0
2017-05-10T00:58:28.165Z,0
2017-05-10T00:59:28.125Z,0
2017-05-10T01:00:28.095Z,0
2017-05-10T01:01:28.074Z,0
2017-05-10T01:02:28.052Z,0
2017-05-10T01:03:28.025Z,0
2017-05-10T01:04:27.696Z,0
2017-05-10T01:05:28.286Z,0
2017-05-10T01:06:28.005Z,0
2017-05-10T01:07:27.914Z,0
2017-05-10T01:08:27.903Z,0
2017-05-10T01:09:27.887Z,0
2017-05-10T01:10:27.880Z,0
2017-05-10T01:11:27.828Z,0
2017-05-10T01:12:27.815Z,0
2017-05-10T01:13:28.032Z,0
2017-05-10T01:14:27.761Z,0
2017-05-10T01:15:27.738Z,0
2017-05-10T01:16:27.413Z,0
2017-05-10T01:17:27.393Z,0
2017-05-10T01:18:27.667Z,0
2017-05-10T01:19:27.641Z,0
2017-05-10T01:20:27.316Z,0
2017-05-10T01:21:27.591Z,0
2017-05-10T01:22:27.566Z,0
2017-05-10T01:23:27.540Z,0
2017-05-10T01:24:27.523Z,0
2017-05-10T01:25:27.530Z,0
2017-05-10T01:26:27.461Z,0
2017-05-10T01:27:27.445Z,0
2017-05-10T01:28:27.426Z,0
2017-05-10T01:29:27.389Z,0
2017-05-10T01:30:27.374Z,0
2017-05-10T01:31:27.335Z,0
2017-05-10T01:32:27.318Z,0
2017-05-10T01:33:27.297Z,0
2017-05-10T01:34:27.319Z,0
2017-05-10T01:35:27.242Z,0
2017-05-10T01:36:27.234Z,0
2017-05-10T01:37:27.189Z,0
2017-05-10T01:38:27.164Z,0
2017-05-10T01:39:27.158Z,0
2017-05-10T01:40:26.830Z,0
2017-05-10T01:41:27.138Z,0
2017-05-10T01:42:27.071Z,0
2017-05-10T01:43:27.046Z,0
2017-05-10T01:44:26.741Z,0
2017-05-10T01:45:26.695Z,0
2017-05-10T01:46:26.681Z,0
2017-05-10T01:47:26.951Z,0
2017-05-10T01:48:26.638Z,0
2017-05-10T01:49:26.601Z,0
2017-05-10T01:50:26.569Z,0
2017-05-10T01:51:26.848Z,0
2017-05-10T01:52:26.845Z,0
2017-05-10T01:53:26.504Z,0
2017-05-10T01:54:26.475Z,0
2017-05-10T01:55:26.752Z,0
2017-05-10T01:56:26.132Z,0
2017-05-10T01:57:26.407Z,0
2017-05-10T01:58:26.380Z,0
2017-05-10T01:59:26.701Z,0
2017-05-10T02:00:26.621Z,0
2017-05-10T02:01:26.613Z,0
2017-05-10T02:02:26.279Z,0
2017-05-10T02:03:26.266Z,0
2017-05-10T02:04:26.533Z,0
2017-05-10T02:05:26.249Z,0
2017-05-10T02:06:26.190Z,0
2017-05-10T02:07:26.151Z,0
2017-05-10T02:08:26.130Z,0
2017-05-10T02:09:26.417Z,0
2017-05-10T02:10:26.383Z,0
2017-05-10T02:11:26.365Z,0
2017-05-10T02:12:26.329Z,0
2017-05-10T02:13:26.016Z,0
2017-05-10T02:14:25.994Z,0
2017-05-10T02:15:25.959Z,0
2017-05-10T02:16:26.240Z,0
2017-05-10T02:17:25.906Z,0
2017-05-10T02:18:26.189Z,0
2017-05-10T02:19:26.165Z,0
2017-05-10T02:20:26.138Z,0
2017-05-10T02:21:25.511Z,0
2017-05-10T02:22:26.091Z,0
2017-05-10T02:23:26.062Z,0
2017-05-10T02:24:26.052Z,0
2017-05-10T02:25:26.019Z,0
2017-05-10T02:26:25.994Z,0
2017-05-10T02:27:25.966Z,0
2017-05-10T02:28:25.938Z,0
2017-05-10T02:29:25.912Z,0
2017-05-10T02:30:25.891Z,0
2017-05-10T02:31:25.555Z,0
2017-05-10T02:32:25.845Z,0
2017-05-10T02:33:25.511Z,0
2017-05-10T02:34:25.794Z,0
2017-05-10T02:35:25.801Z,0
2017-05-10T02:36:25.746Z,0
2017-05-10T02:37:25.429Z,0
2017-05-10T02:38:25.693Z,0
2017-05-10T02:39:25.369Z,0
2017-05-10T02:40:25.641Z,0
2017-05-10T02:41:25.672Z,0
2017-05-10T02:42:25.664Z,0
2017-05-10T02:43:25.576Z,0
2017-05-10T02:44:25.540Z,0
2017-05-10T02:45:25.527Z,0
2017-05-10T02:46:25.505Z,0
2017-05-10T02:47:25.474Z,0
2017-05-10T02:48:25.455Z,0
2017-05-10T02:49:25.418Z,0
2017-05-10T02:50:25.389Z,0
2017-05-10T02:51:25.369Z,0
2017-05-10T02:52:25.359Z,0
2017-05-10T02:53:25.325Z,0
2017-05-10T02:54:25.314Z,0
2017-05-10T02:55:25.283Z,0
2017-05-10T02:56:24.955Z,0
2017-05-10T02:57:25.226Z,0
2017-05-10T02:58:25.201Z,0
2017-05-10T02:59:24.888Z,0
2017-05-10T03:00:24.846Z,0
2017-05-10T03:01:25.117Z,0
2017-05-10T03:02:25.098Z,0
2017-05-10T03:03:25.083Z,4
2017-05-10T03:04:24.765Z,4
2017-05-10T03:05:25.040Z,4
2017-05-10T03:06:25.007Z,0
2017-05-10T03:07:24.676Z,0
2017-05-10T03:08:24.946Z,4
2017-05-10T03:09:24.933Z,4
2017-05-10T03:10:24.904Z,4
2017-05-10T03:11:24.867Z,4
2017-05-10T03:12:24.846Z,8
2017-05-10T03:13:24.822Z,4
2017-05-10T03:14:24.797Z,8
2017-05-10T03:15:24.515Z,8
2017-05-10T03:16:24.747Z,12
2017-05-10T03:17:24.414Z,12
2017-05-10T03:18:24.407Z,12
2017-05-10T03:19:24.684Z,16
2017-05-10T03:20:24.708Z,20
2017-05-10T03:21:24.317Z,20
2017-05-10T03:22:24.596Z,24
2017-05-10T03:23:24.275Z,24
2017-05-10T03:24:24.591Z,28
2017-05-10T03:25:24.520Z,32
2017-05-10T03:26:24.551Z,36
2017-05-10T03:27:24.475Z,40
2017-05-10T03:28:24.448Z,48
2017-05-10T03:29:24.425Z,52
2017-05-10T03:30:24.410Z,60
2017-05-10T03:31:24.377Z,64
2017-05-10T03:32:24.348Z,72
2017-05-10T03:33:24.378Z,84
2017-05-10T03:34:24.294Z,88
2017-05-10T03:35:24.270Z,100
2017-05-10T03:36:24.253Z,108
2017-05-10T03:37:24.223Z,116
2017-05-10T03:38:24.216Z,128
2017-05-10T03:39:24.172Z,140
2017-05-10T03:40:24.154Z,152
2017-05-10T03:41:24.124Z,168
2017-05-10T03:42:24.104Z,180
2017-05-10T03:43:23.775Z,192
2017-05-10T03:44:23.747Z,208
2017-05-10T03:45:24.017Z,224
2017-05-10T03:46:23.997Z,244
2017-05-10T03:47:23.975Z,260
2017-05-10T03:48:23.951Z,280
2017-05-10T03:49:23.917Z,304
2017-05-10T03:50:23.897Z,324
2017-05-10T03:51:23.868Z,344
2017-05-10T03:52:23.849Z,368
2017-05-10T03:53:23.827Z,392
2017-05-10T03:54:23.847Z,416
2017-05-10T03:55:23.771Z,444
2017-05-10T03:56:23.788Z,464
2017-05-10T03:57:23.756Z,496
2017-05-10T03:58:23.700Z,520
2017-05-10T03:59:23.675Z,552
2017-05-10T04:00:23.645Z,584
2017-05-10T04:01:23.622Z,612
2017-05-10T04:02:23.900Z,648
2017-05-10T04:03:23.624Z,680
2017-05-10T04:04:23.549Z,712
2017-05-10T04:05:23.520Z,756
2017-05-10T04:06:23.488Z,800
2017-05-10T04:07:23.167Z,848
2017-05-10T04:08:23.539Z,900
2017-05-10T04:09:23.421Z,960
2017-05-10T04:10:23.389Z,1024
2017-05-10T04:11:23.370Z,1104
2017-05-10T04:12:23.347Z,1184
2017-05-10T04:13:23.325Z,1260
2017-05-10T04:14:23.295Z,1296
2017-05-10T04:15:23.265Z,1300
2017-05-10T04:16:23.240Z,1316
2017-05-10T04:17:23.228Z,1348
2017-05-10T04:18:23.200Z,1392
2017-05-10T04:19:23.162Z,1452
2017-05-10T04:20:23.145Z,1516
2017-05-10T04:21:23.118Z,1592
2017-05-10T04:22:23.095Z,1684
2017-05-10T04:23:22.773Z,1768
2017-05-10T04:24:23.053Z,1828
2017-05-10T04:25:23.019Z,1856
2017-05-10T04:26:22.697Z,1924
2017-05-10T04:27:22.975Z,2000
2017-05-10T04:28:22.958Z,2060
2017-05-10T04:29:22.922Z,2120
2017-05-10T04:30:22.903Z,2220
2017-05-10T04:31:22.879Z,2400
2017-05-10T04:32:22.847Z,2552
2017-05-10T04:33:22.827Z,2720
2017-05-10T04:34:22.790Z,2876
2017-05-10T04:35:22.782Z,3000
2017-05-10T04:36:22.447Z,3148
2017-05-10T04:37:22.717Z,3268
2017-05-10T04:38:22.690Z,3384
2017-05-10T04:39:22.674Z,3436
2017-05-10T04:40:22.694Z,3588
2017-05-10T04:41:22.622Z,3692
2017-05-10T04:42:22.605Z,3812
2017-05-10T04:43:22.299Z,3680
2017-05-10T04:44:22.550Z,3700
2017-05-10T04:45:22.529Z,4296
2017-05-10T04:46:22.590Z,4264
2017-05-10T04:47:22.483Z,4608
2017-05-10T04:48:22.447Z,4784
2017-05-10T04:49:22.430Z,4820
2017-05-10T04:50:22.403Z,4868
2017-05-10T04:51:22.071Z,5096
2017-05-10T04:52:22.361Z,5224
2017-05-10T04:53:22.331Z,5256
2017-05-10T04:54:22.007Z,5464
2017-05-10T04:55:22.284Z,6264
2017-05-10T04:56:21.951Z,6768
2017-05-10T04:57:22.232Z,7048
2017-05-10T04:58:21.908Z,7068
2017-05-10T04:59:22.181Z,6944
2017-05-10T05:00:22.158Z,6400
2017-05-10T05:01:22.139Z,7572
2017-05-10T05:02:22.108Z,7832
2017-05-10T05:03:22.085Z,7964
2017-05-10T05:04:22.073Z,8368
2017-05-10T05:05:22.038Z,8232
2017-05-10T05:06:22.035Z,8864
2017-05-10T05:07:21.999Z,9232
2017-05-10T05:08:21.678Z,9520
2017-05-10T05:09:21.954Z,9772
2017-05-10T05:10:21.935Z,9844
2017-05-10T05:11:21.911Z,9912
2017-05-10T05:12:21.882Z,10116
2017-05-10T05:13:21.860Z,10296
2017-05-10T05:14:21.579Z,10512
2017-05-10T05:15:21.514Z,10280
2017-05-10T05:16:21.798Z,10320
2017-05-10T05:17:21.765Z,10876
2017-05-10T05:18:21.751Z,11152
2017-05-10T05:19:21.420Z,10972
2017-05-10T05:20:21.702Z,11792
2017-05-10T05:21:21.706Z,12024
2017-05-10T05:22:21.661Z,12192
2017-05-10T05:23:21.639Z,12124
2017-05-10T05:24:21.609Z,11188
2017-05-10T05:25:21.596Z,10948
2017-05-10T05:26:21.565Z,10360
2017-05-10T05:27:21.541Z,12576
2017-05-10T05:28:21.528Z,12916
2017-05-10T05:29:21.554Z,12872
2017-05-10T05:30:21.474Z,12520
2017-05-10T05:31:21.161Z,12772
2017-05-10T05:32:21.191Z,13628
2017-05-10T05:33:21.479Z,13844
2017-05-10T05:34:21.401Z,12524
2017-05-10T05:35:21.376Z,12352
2017-05-10T05:36:21.344Z,13504
2017-05-10T05:37:21.333Z,13852
2017-05-10T05:38:21.054Z,12472
2017-05-10T05:39:21.288Z,12576
2017-05-10T05:40:21.264Z,16704
2017-05-10T05:41:21.246Z,17376
2017-05-10T05:42:21.225Z,17632
2017-05-10T05:43:21.200Z,17376
2017-05-10T05:44:21.176Z,16736
2017-05-10T05:45:21.153Z,16256
2017-05-10T05:46:20.832Z,16096
2017-05-10T05:47:21.115Z,15072
2017-05-10T05:48:21.092Z,14404
2017-05-10T05:49:21.084Z,15808
2017-05-10T05:50:21.049Z,17280
2017-05-10T05:51:21.064Z,17152
2017-05-10T05:52:21.011Z,16800
2017-05-10T05:53:20.990Z,12236
2017-05-10T05:54:20.961Z,17984
2017-05-10T05:55:20.997Z,20736
2017-05-10T05:56:20.920Z,20608
2017-05-10T05:57:20.906Z,20576
2017-05-10T05:58:20.892Z,19296
2017-05-10T05:59:20.923Z,17888
2017-05-10T06:00:20.841Z,18304
2017-05-10T06:01:20.823Z,18368
2017-05-10T06:02:20.497Z,20640
2017-05-10T06:03:20.831Z,21152
2017-05-10T06:04:20.761Z,21632
2017-05-10T06:05:20.738Z,21536
2017-05-10T06:06:20.736Z,20384
2017-05-10T06:07:20.712Z,20480
2017-05-10T06:08:20.683Z,19872
2017-05-10T06:09:20.662Z,20576
2017-05-10T06:10:20.687Z,22400
2017-05-10T06:11:20.628Z,22496
2017-05-10T06:12:20.603Z,22880
2017-05-10T06:13:20.586Z,23424
2017-05-10T06:14:20.570Z,24544
2017-05-10T06:15:20.545Z,25440
2017-05-10T06:16:20.535Z,25984
2017-05-10T06:17:20.555Z,26336
2017-05-10T06:18:20.489Z,25856
2017-05-10T06:19:20.533Z,24480
2017-05-10T06:20:20.457Z,24032
2017-05-10T06:21:20.433Z,24928
2017-05-10T06:22:20.113Z,24384
2017-05-10T06:23:20.388Z,23392
2017-05-10T06:24:20.590Z,23552
2017-05-10T06:25:20.355Z,25184
2017-05-10T06:26:20.331Z,27072
2017-05-10T06:27:20.307Z,28128
2017-05-10T06:28:20.306Z,27648
2017-05-10T06:29:20.337Z,28320
2017-05-10T06:30:20.257Z,26528
2017-05-10T06:31:20.292Z,25696
2017-05-10T06:32:20.224Z,24608
2017-05-10T06:33:20.205Z,25824
2017-05-10T06:34:20.190Z,28256
2017-05-10T06:35:19.869Z,30112
2017-05-10T06:36:20.150Z,28032
2017-05-10T06:37:20.194Z,29760
2017-05-10T06:38:20.109Z,31072
2017-05-10T06:39:20.112Z,29856
2017-05-10T06:40:20.131Z,27072
2017-05-10T06:41:20.057Z,28480
2017-05-10T06:42:20.046Z,27584
2017-05-10T06:43:20.059Z,28544
2017-05-10T06:44:20.021Z,29728
2017-05-10T06:45:19.936Z,30752
2017-05-10T06:46:19.703Z,32192
2017-05-10T06:47:19.955Z,32896
2017-05-10T06:48:19.947Z,30272
2017-05-10T06:49:19.918Z,29248
2017-05-10T06:50:19.602Z,28896
2017-05-10T06:51:19.895Z,29184
2017-05-10T06:52:19.600Z,32288
2017-05-10T06:53:19.854Z,33472
2017-05-10T06:54:19.844Z,32896
2017-05-10T06:55:19.812Z,30592
2017-05-10T06:56:19.497Z,30720
2017-05-10T06:57:19.783Z,30592
2017-05-10T06:58:19.769Z,30976
2017-05-10T06:59:19.802Z,32320
2017-05-10T07:00:19.727Z,32992
2017-05-10T07:01:19.713Z,33344
2017-05-10T07:02:19.696Z,33920
2017-05-10T07:03:19.683Z,33184
2017-05-10T07:04:19.419Z,33152
2017-05-10T07:05:19.648Z,33792
2017-05-10T07:06:19.657Z,35200
2017-05-10T07:07:19.614Z,35072
2017-05-10T07:08:19.593Z,37824
2017-05-10T07:09:19.578Z,42144
2017-05-10T07:10:19.563Z,41408
2017-05-10T07:11:19.555Z,38656
2017-05-10T07:12:19.532Z,38912
2017-05-10T07:13:19.533Z,41024
2017-05-10T07:14:19.514Z,40672
2017-05-10T07:15:19.486Z,40448
2017-05-10T07:16:19.467Z,41184
2017-05-10T07:17:19.455Z,43136
2017-05-10T07:18:19.435Z,38976
2017-05-10T07:19:19.426Z,46816
2017-05-10T07:20:19.452Z,47552
2017-05-10T07:21:19.391Z,47648
2017-05-10T07:22:19.426Z,47296
2017-05-10T07:23:19.361Z,47040
2017-05-10T07:24:19.346Z,49056
2017-05-10T07:25:19.328Z,44160
2017-05-10T07:26:19.307Z,50432
2017-05-10T07:27:19.338Z,50208
2017-05-10T07:28:19.278Z,48992
2017-05-10T07:29:19.278Z,47776
2017-05-10T07:30:18.640Z,46912
2017-05-10T07:31:19.240Z,46528
2017-05-10T07:32:19.218Z,47520
2017-05-10T07:33:19.215Z,49856
2017-05-10T07:34:19.241Z,50368
2017-05-10T07:35:19.178Z,52032
2017-05-10T07:36:19.167Z,51424
2017-05-10T07:37:19.205Z,51840
2017-05-10T07:38:19.129Z,51584
2017-05-10T07:39:19.117Z,49088
2017-05-10T07:40:19.154Z,47168
2017-05-10T07:41:19.086Z,46432
2017-05-10T07:42:19.072Z,46528
2017-05-10T07:43:19.114Z,48000
2017-05-10T07:44:19.107Z,43488
2017-05-10T07:45:19.039Z,51744
2017-05-10T07:46:19.015Z,54688
2017-05-10T07:47:18.998Z,53760
2017-05-10T07:48:18.990Z,54112
2017-05-10T07:49:18.967Z,53504
2017-05-10T07:50:18.967Z,54272
2017-05-10T07:51:18.640Z,53568
2017-05-10T07:52:18.929Z,50816
2017-05-10T07:53:18.920Z,45280
2017-05-10T07:54:18.909Z,55808
2017-05-10T07:55:18.946Z,58272
2017-05-10T07:56:18.878Z,60160
2017-05-10T07:57:18.858Z,61440
2017-05-10T07:58:19.098Z,60032
2017-05-10T07:59:18.838Z,63136
2017-05-10T08:00:18.811Z,63168
2017-05-10T08:01:18.801Z,63232
2017-05-10T08:02:18.941Z,62272
2017-05-10T08:03:18.775Z,59744
2017-05-10T08:04:18.768Z,58560
2017-05-10T08:05:18.749Z,60448
2017-05-10T08:06:18.747Z,66016
2017-05-10T08:07:18.718Z,70560
2017-05-10T08:08:18.709Z,72736
2017-05-10T08:09:18.698Z,72992
2017-05-10T08:10:18.681Z,73664
2017-05-10T08:11:18.674Z,71744
2017-05-10T08:12:18.710Z,69344
2017-05-10T08:13:18.652Z,68960
2017-05-10T08:14:18.633Z,68896
2017-05-10T08:15:18.621Z,69600
2017-05-10T08:16:18.611Z,70912
2017-05-10T08:17:18.641Z,73920
2017-05-10T08:18:18.278Z,73056
2017-05-10T08:19:18.614Z,68512
2017-05-10T08:20:18.591Z,68000
2017-05-10T08:21:18.545Z,66944
2017-05-10T08:22:18.790Z,66208
2017-05-10T08:23:18.579Z,60640
2017-05-10T08:24:18.210Z,55040
2017-05-10T08:25:18.504Z,63200
2017-05-10T08:26:18.488Z,39552
2017-05-10T08:27:18.479Z,32640
2017-05-10T08:28:18.515Z,49184
2017-05-10T08:29:18.445Z,49600
2017-05-10T08:30:18.437Z,34752
2017-05-10T08:31:18.424Z,63648
2017-05-10T08:32:18.418Z,57024
2017-05-10T08:33:18.417Z,60224
2017-05-10T08:34:18.391Z,47808
2017-05-10T08:35:18.069Z,49184
2017-05-10T08:36:18.369Z,30848
2017-05-10T08:37:18.351Z,42080
2017-05-10T08:38:18.346Z,27456
2017-05-10T08:39:18.339Z,64224
2017-05-10T08:40:18.365Z,70208
2017-05-10T08:41:18.308Z,78816
2017-05-10T08:42:18.283Z,78144
2017-05-10T08:43:18.376Z,79392
2017-05-10T08:44:18.006Z,75584
2017-05-10T08:45:18.197Z,70144
2017-05-10T08:46:18.233Z,75616
2017-05-10T08:47:18.215Z,64672
2017-05-10T08:48:18.264Z,63776
2017-05-10T08:49:18.216Z,62304
2017-05-10T08:50:18.193Z,35488
2017-05-10T08:51:18.224Z,27776
2017-05-10T08:52:18.163Z,25280
2017-05-10T08:53:18.154Z,60544
2017-05-10T08:54:18.142Z,50336
2017-05-10T08:55:18.119Z,41472
2017-05-10T08:56:18.104Z,24832
2017-05-10T08:57:18.091Z,16916
2017-05-10T08:58:18.379Z,15032
2017-05-10T08:59:18.059Z,18144
2017-05-10T09:00:18.047Z,23200
2017-05-10T09:01:18.038Z,62144
2017-05-10T09:02:18.023Z,65056
2017-05-10T09:03:18.004Z,23616
2017-05-10T09:04:17.976Z,68192
2017-05-10T09:05:17.974Z,36192
2017-05-10T09:06:18.006Z,46816
2017-05-10T09:07:17.942Z,24928
2017-05-10T09:08:17.620Z,22400
2017-05-10T09:09:17.917Z,21600
2017-05-10T09:10:17.897Z,24608
2017-05-10T09:11:17.876Z,27104
2017-05-10T09:12:17.866Z,76864
2017-05-10T09:13:17.845Z,78976
2017-05-10T09:14:17.888Z,83104
2017-05-10T09:15:17.815Z,81696
2017-05-10T09:16:17.798Z,31328
2017-05-10T09:17:17.802Z,76192
2017-05-10T09:18:17.779Z,88320
2017-05-10T09:19:17.755Z,31328
2017-05-10T09:20:17.734Z,84576
2017-05-10T09:21:17.736Z,90048
2017-05-10T09:22:17.707Z,90976
2017-05-10T09:23:17.695Z,91872
2017-05-10T09:24:17.975Z,90112
2017-05-10T09:25:17.395Z,84192
2017-05-10T09:26:17.355Z,28352
2017-05-10T09:27:17.338Z,23680
2017-05-10T09:28:17.679Z,20960
2017-05-10T09:29:17.613Z,19328
2017-05-10T09:30:17.591Z,19552
2017-05-10T09:31:17.583Z,24448
2017-05-10T09:32:17.622Z,33376
2017-05-10T09:33:17.555Z,35776
2017-05-10T09:34:17.542Z,66560
2017-05-10T09:35:17.520Z,20320
2017-05-10T09:36:17.507Z,25344
2017-05-10T09:37:17.492Z,47552
2017-05-10T09:38:17.478Z,33504
2017-05-10T09:39:17.456Z,42976
2017-05-10T09:40:17.450Z,83296
2017-05-10T09:41:17.421Z,34816
2017-05-10T09:42:17.416Z,87552
2017-05-10T09:43:17.383Z,23360
2017-05-10T09:44:17.125Z,21952
2017-05-10T09:45:16.750Z,21504
2017-05-10T09:46:17.053Z,22080
2017-05-10T09:47:17.022Z,39328
2017-05-10T09:48:17.332Z,80800
2017-05-10T09:49:16.695Z,84416
2017-05-10T09:50:16.977Z,85632
2017-05-10T09:51:16.969Z,83808
2017-05-10T09:52:17.246Z,59552
2017-05-10T09:53:17.229Z,84512
2017-05-10T09:54:17.211Z,79392
2017-05-10T09:55:17.205Z,64704
2017-05-10T09:56:17.179Z,26144
2017-05-10T09:57:17.177Z,29024
2017-05-10T09:58:17.157Z,22752
2017-05-10T09:59:17.139Z,20384
2017-05-10T10:00:16.819Z,18144
2017-05-10T10:01:17.117Z,18240
2017-05-10T10:02:17.094Z,19424
2017-05-10T10:03:17.132Z,19744
2017-05-10T10:04:16.461Z,19392
2017-05-10T10:05:17.046Z,18752
2017-05-10T10:06:17.037Z,19040
2017-05-10T10:07:17.016Z,24864
2017-05-10T10:08:16.709Z,63776
2017-05-10T10:09:17.043Z,82240
2017-05-10T10:10:17.015Z,77184
2017-05-10T10:11:16.946Z,68608
2017-05-10T10:12:16.948Z,28672
2017-05-10T10:13:17.142Z,22688
2017-05-10T10:14:16.905Z,23936
2017-05-10T10:15:16.884Z,19232
2017-05-10T10:16:16.861Z,18944
2017-05-10T10:17:16.905Z,19328
2017-05-10T10:25:44.021Z,25600
2017-05-10T10:26:12.708Z,26336
2017-05-10T10:27:12.525Z,31520
2017-05-10T10:28:12.761Z,93760
2017-05-10T10:29:12.492Z,61696
2017-05-10T10:30:12.466Z,100768
2017-05-10T10:31:12.450Z,50272
2017-05-10T10:32:12.190Z,40160
2017-05-10T10:33:12.431Z,93664
2017-05-10T10:34:12.407Z,26304
2017-05-10T10:35:12.388Z,63744
2017-05-10T10:36:12.072Z,96672
2017-05-10T10:37:12.416Z,98432
2017-05-10T10:38:26.945Z,100640
2017-05-10T10:39:12.024Z,102304
2017-05-10T10:40:12.012Z,106048
2017-05-10T10:41:12.339Z,110016
2017-05-10T10:42:12.276Z,115328
2017-05-10T10:43:12.267Z,114560
2017-05-10T10:44:11.962Z,108800
2017-05-10T10:45:12.236Z,102656
2017-05-10T10:46:11.931Z,94112
2017-05-10T10:47:11.920Z,35040
2017-05-10T10:48:12.209Z,52032
2017-05-10T10:49:12.186Z,38848
2017-05-10T10:50:12.227Z,110976
2017-05-10T10:51:12.160Z,107008
2017-05-10T10:52:12.168Z,102976
2017-05-10T10:53:11.832Z,94400
2017-05-10T10:54:12.120Z,85376
2017-05-10T10:55:12.166Z,21568
2017-05-10T10:56:12.109Z,18208
2017-05-10T10:57:11.784Z,17440
2017-05-10T10:58:12.072Z,16492
2017-05-10T10:59:12.055Z,16000
2017-05-10T11:00:12.046Z,16364
2017-05-10T11:01:12.029Z,18592
2017-05-10T11:02:12.017Z,19424
2017-05-10T11:03:12.003Z,19712
2017-05-10T11:04:11.981Z,19328
2017-05-10T11:05:11.973Z,19680
2017-05-10T11:06:11.960Z,20128
2017-05-10T11:07:11.956Z,22176
2017-05-10T11:08:11.923Z,17920
2017-05-10T11:09:11.639Z,16588
2017-05-10T11:10:11.892Z,14700
2017-05-10T11:11:11.567Z,13408
2017-05-10T11:12:11.855Z,13640
2017-05-10T11:13:11.851Z,14132
2017-05-10T11:14:11.550Z,14336
2017-05-10T11:15:11.800Z,14244
2017-05-10T11:16:11.785Z,14740
2017-05-10T11:17:11.807Z,15676
2017-05-10T11:18:11.748Z,16992
2017-05-10T11:19:11.729Z,18784
2017-05-10T11:20:11.759Z,19744
2017-05-10T11:21:11.681Z,19680
2017-05-10T11:22:11.399Z,18944
2017-05-10T11:23:11.361Z,18592
2017-05-10T11:24:11.629Z,16916
2017-05-10T11:25:11.312Z,17792
2017-05-10T11:26:10.993Z,16272
2017-05-10T11:27:11.635Z,16132
2017-05-10T11:28:11.610Z,17504
2017-05-10T11:29:11.586Z,18208
2017-05-10T11:30:11.570Z,17472
2017-05-10T11:31:11.206Z,14864
2017-05-10T11:32:11.487Z,12400
2017-05-10T11:33:11.466Z,11348
2017-05-10T11:34:11.453Z,11308
2017-05-10T11:35:11.445Z,12608
2017-05-10T11:36:11.409Z,14616
2017-05-10T11:37:11.451Z,15556
2017-05-10T11:38:11.376Z,15256
2017-05-10T11:39:11.042Z,15420
2017-05-10T11:40:11.377Z,16200
2017-05-10T11:41:11.308Z,16456
2017-05-10T11:42:11.294Z,16468
2017-05-10T11:43:11.267Z,16920
2017-05-10T11:44:11.250Z,16120
2017-05-10T11:45:10.937Z,17036
2017-05-10T11:46:11.288Z,16632
2017-05-10T11:47:11.200Z,15380
2017-05-10T11:48:11.224Z,14136
2017-05-10T11:49:11.167Z,12364
2017-05-10T11:50:11.138Z,11632
2017-05-10T11:51:11.115Z,12292
2017-05-10T11:52:11.095Z,11736
2017-05-10T11:53:11.078Z,10004
2017-05-10T11:54:11.067Z,8764
2017-05-10T11:55:11.062Z,8660
2017-05-10T11:56:11.021Z,8924
2017-05-10T11:57:11.005Z,9464
2017-05-10T11:58:10.998Z,9456
2017-05-10T11:59:10.669Z,9640
2017-05-10T12:00:10.943Z,9132
2017-05-10T12:01:10.925Z,8552
2017-05-10T12:02:10.906Z,8192
2017-05-10T12:03:10.878Z,8236
2017-05-10T12:04:10.867Z,8756
2017-05-10T12:05:10.841Z,8808
2017-05-10T12:06:10.822Z,9668
2017-05-10T12:07:10.805Z,11052
2017-05-10T12:08:10.815Z,11140
2017-05-10T12:09:10.764Z,10912
2017-05-10T12:10:10.736Z,11208
2017-05-10T12:11:10.726Z,11576
2017-05-10T12:12:10.705Z,11876
2017-05-10T12:13:10.682Z,12228
2017-05-10T12:14:10.466Z,11972
2017-05-10T12:15:10.641Z,11040
2017-05-10T12:16:10.616Z,10356
2017-05-10T12:17:10.593Z,9760
2017-05-10T12:18:10.626Z,9372
2017-05-10T12:19:10.558Z,8820
2017-05-10T12:20:10.535Z,8952
2017-05-10T12:21:10.558Z,9384
2017-05-10T12:22:10.486Z,10212
2017-05-10T12:23:10.469Z,10168
2017-05-10T12:24:10.454Z,10212
2017-05-10T12:25:09.847Z,10996
2017-05-10T12:26:10.405Z,11028
2017-05-10T12:27:10.398Z,9788
2017-05-10T12:28:10.433Z,9684
2017-05-10T12:29:10.350Z,10084
2017-05-10T12:30:10.537Z,10448
2017-05-10T12:31:10.375Z,10004
2017-05-10T12:32:10.288Z,10128
2017-05-10T12:33:10.265Z,9724
2017-05-10T12:34:10.252Z,9168
2017-05-10T12:35:09.633Z,8700
2017-05-10T12:36:10.221Z,8612
2017-05-10T12:37:09.894Z,8844
2017-05-10T12:38:10.197Z,8708
2017-05-10T12:39:09.849Z,8688
2017-05-10T12:40:09.879Z,8204
2017-05-10T12:41:10.114Z,7860
2017-05-10T12:42:10.085Z,7748
2017-05-10T12:43:10.079Z,7216
2017-05-10T12:44:10.050Z,6824
2017-05-10T12:45:10.045Z,6560
2017-05-10T12:46:10.001Z,7536
2017-05-10T12:47:10.044Z,7796
2017-05-10T12:48:09.958Z,6832
2017-05-10T12:49:09.942Z,7280
2017-05-10T12:50:09.919Z,7188
2017-05-10T12:51:09.926Z,7832
2017-05-10T12:52:09.882Z,7724
2017-05-10T12:53:09.862Z,6416
2017-05-10T12:54:09.546Z,5988
2017-05-10T12:55:09.835Z,5992
2017-05-10T12:56:09.803Z,5708
2017-05-10T12:57:09.838Z,5472
2017-05-10T12:58:09.760Z,5376
2017-05-10T12:59:09.445Z,5400
2017-05-10T13:00:09.480Z,5480
2017-05-10T13:01:09.703Z,5612
2017-05-10T13:02:09.676Z,5728
2017-05-10T13:03:09.666Z,6052
2017-05-10T13:04:09.336Z,6692
2017-05-10T13:05:09.324Z,7368
2017-05-10T13:06:09.661Z,7288
2017-05-10T13:07:09.572Z,6916
2017-05-10T13:08:09.552Z,6332
2017-05-10T13:09:09.239Z,5900
2017-05-10T13:10:09.516Z,5680
2017-05-10T13:11:09.554Z,5324
2017-05-10T13:12:09.175Z,5256
2017-05-10T13:13:09.454Z,5092
2017-05-10T13:14:09.427Z,5248
2017-05-10T13:15:09.413Z,5620
2017-05-10T13:16:09.446Z,5720
2017-05-10T13:17:09.368Z,5452
2017-05-10T13:18:09.375Z,6312
2017-05-10T13:19:09.035Z,6356
2017-05-10T13:20:09.316Z,5820
2017-05-10T13:21:09.304Z,6048
2017-05-10T13:22:09.272Z,5256
2017-05-10T13:23:09.266Z,5104
2017-05-10T13:24:08.985Z,5264
2017-05-10T13:25:08.917Z,5024
2017-05-10T13:26:09.187Z,5372
2017-05-10T13:27:09.160Z,5508
2017-05-10T13:28:09.182Z,5376
2017-05-10T13:29:09.120Z,5216
2017-05-10T13:30:09.144Z,4916
2017-05-10T13:31:08.788Z,5284
2017-05-10T13:32:09.081Z,5816
2017-05-10T13:33:09.047Z,5976